Time;durP1;ratioP1;P1;durP2;ratioP2;P2;SDS_P1;SDS_P2;PMS_P1;PMS_P2;Temp;Humidity;BMP_temperature;BMP_pressure;BME280_temperature;BME280_humidity;BME280_pressure;Samples;Min_cycle;Max_cycle;Signal;HPM_P1;HPM_P2
2022/04/18 00:02:18;;;;;;;4.40;1.33;;;;;;;;;;5066702;28;20599;-82
2022/04/18 00:04:44;;;;;;;1.30;1.20;;;;;;;;;;5062657;28;20406;-81
2022/04/18 00:07:10;;;;;;;1.15;0.90;;;;;;;;;;5062094;28;20185;-81
2022/04/18 00:09:37;;;;;;;1.27;1.05;;;;;;;;;;5062030;28;20208;-81
2022/04/18 00:12:03;;;;;;;1.40;1.20;;;;;;;;;;5062294;28;20199;-81
2022/04/18 00:14:30;;;;;;;1.60;1.15;;;;;;;;;;5064586;28;20217;-81
2022/04/18 00:16:56;;;;;;;1.65;1.00;;;;;;;;;;5066343;28;20172;-81
2022/04/18 00:19:22;;;;;;;2.28;1.15;;;;;;;;;;5062466;28;20213;-80
2022/04/18 00:21:49;;;;;;;2.92;1.17;;;;;;;;;;5065398;28;20177;-81
2022/04/18 00:24:17;;;;;;;3.33;1.42;;;;;;;;;;5062275;28;20192;-81
2022/04/18 00:26:43;;;;;;;1.35;1.20;;;;;;;;;;5078884;28;20182;-81
2022/04/18 00:29:09;;;;;;;2.25;0.95;;;;;;;;;;5081606;28;20614;-81
2022/04/18 00:31:35;;;;;;;1.20;1.10;;;;;;;;;;5064627;28;20268;-81
2022/04/18 00:34:01;;;;;;;1.95;1.20;;;;;;;;;;5061673;28;20185;-81
2022/04/18 00:36:27;;;;;;;1.13;0.93;;;;;;;;;;5061592;28;20239;-81
2022/04/18 00:38:53;;;;;;;2.28;0.95;;;;;;;;;;5063466;28;20613;-81
2022/04/18 00:41:19;;;;;;;1.53;1.00;;;;;;;;;;5065296;28;20176;-81
2022/04/18 00:43:47;;;;;;;1.58;1.27;;;;;;;;;;5064981;28;20415;-81
2022/04/18 00:46:13;;;;;;;1.40;1.30;;;;;;;;;;5060892;28;20185;-80
2022/04/18 00:48:39;;;;;;;1.85;1.13;;;;;;;;;;5063082;28;20189;-81
2022/04/18 00:51:07;;;;;;;1.50;0.90;;;;;;;;;;5062736;28;20235;-81
2022/04/18 00:53:34;;;;;;;2.67;1.80;;;;;;;;;;5049309;28;20244;-81
2022/04/18 00:56:00;;;;;;;1.17;1.05;;;;;;;;;;5065236;28;20169;-81
2022/04/18 00:58:26;;;;;;;1.58;1.17;;;;;;;;;;5061644;28;20197;-81
2022/04/18 01:00:53;;;;;;;1.40;1.30;;;;;;;;;;5061724;28;20216;-81
2022/04/18 01:03:20;;;;;;;1.25;1.15;;;;;;;;;;5052100;28;20188;-81
2022/04/18 01:05:47;;;;;;;1.10;0.95;;;;;;;;;;5062040;28;20185;-81
2022/04/18 01:08:13;;;;;;;1.17;1.08;;;;;;;;;;5065197;28;20231;-81
2022/04/18 01:10:39;;;;;;;4.20;1.15;;;;;;;;;;5064570;28;20185;-81
2022/04/18 01:13:05;;;;;;;1.50;1.00;;;;;;;;;;5063881;28;20173;-81
2022/04/18 01:15:31;;;;;;;3.80;1.10;;;;;;;;;;5061683;28;20299;-81
2022/04/18 01:17:57;;;;;;;1.10;1.00;;;;;;;;;;5062285;28;20662;-81
2022/04/18 01:20:25;;;;;;;1.38;1.10;;;;;;;;;;5063919;28;20193;-81
2022/04/18 01:22:53;;;;;;;1.58;0.90;;;;;;;;;;5065470;28;20181;-81
2022/04/18 01:30:55;;;;;;;0.80;0.80;;;;;;;;;;5062565;28;20200;-81
2022/04/18 01:33:21;;;;;;;1.20;1.02;;;;;;;;;;5062015;28;20216;-81
2022/04/18 01:35:47;;;;;;;1.42;1.10;;;;;;;;;;5059994;28;20181;-81
2022/04/18 01:38:13;;;;;;;1.23;1.05;;;;;;;;;;5079506;28;20204;-81
2022/04/18 01:40:40;;;;;;;2.28;1.10;;;;;;;;;;5063458;28;20199;-81
2022/04/18 01:43:06;;;;;;;2.10;1.00;;;;;;;;;;5060504;28;20204;-81
2022/04/18 01:45:32;;;;;;;1.15;1.00;;;;;;;;;;5060928;28;20182;-81
2022/04/18 01:47:58;;;;;;;1.20;1.00;;;;;;;;;;5060324;28;20207;-81
2022/04/18 01:50:24;;;;;;;1.02;0.93;;;;;;;;;;5063171;28;20268;-81
2022/04/18 01:52:50;;;;;;;1.35;1.13;;;;;;;;;;5064617;28;20173;-81
2022/04/18 01:55:16;;;;;;;3.22;1.08;;;;;;;;;;5062873;28;20185;-81
2022/04/18 01:57:43;;;;;;;10.32;1.25;;;;;;;;;;5060438;28;20207;-80
2022/04/18 02:00:09;;;;;;;0.88;0.88;;;;;;;;;;5061075;28;20739;-81
2022/04/18 02:02:35;;;;;;;1.15;1.05;;;;;;;;;;5061640;28;20252;-81
2022/04/18 02:05:01;;;;;;;1.77;0.80;;;;;;;;;;5064939;28;20185;-81
2022/04/18 02:07:28;;;;;;;1.10;1.00;;;;;;;;;;5061293;28;20372;-81
2022/04/18 02:09:55;;;;;;;1.30;1.17;;;;;;;;;;5060294;28;20181;-81
2022/04/18 02:12:21;;;;;;;1.13;0.90;;;;;;;;;;5061390;28;20197;-81
2022/04/18 02:14:47;;;;;;;0.90;0.90;;;;;;;;;;5060348;28;20218;-81
2022/04/18 02:17:13;;;;;;;0.73;0.73;;;;;;;;;;5063251;28;20183;-81
2022/04/18 02:19:39;;;;;;;1.50;1.00;;;;;;;;;;5063826;28;20219;-81
2022/04/18 02:22:05;;;;;;;4.32;0.98;;;;;;;;;;5058669;28;20265;-80
2022/04/18 02:24:31;;;;;;;1.15;0.98;;;;;;;;;;5060738;28;20399;-81
2022/04/18 02:26:58;;;;;;;1.75;1.10;;;;;;;;;;5061601;28;20557;-81
2022/04/18 02:29:24;;;;;;;1.10;1.00;;;;;;;;;;5078169;28;20180;-81
2022/04/18 02:34:35;;;;;;;1.30;1.10;;;;;;;;;;5062395;28;20281;-81
2022/04/18 02:37:01;;;;;;;1.08;1.08;;;;;;;;;;5060702;28;20185;-81
2022/04/18 02:39:27;;;;;;;2.63;1.20;;;;;;;;;;5059605;28;20231;-81
2022/04/18 02:41:53;;;;;;;1.30;1.20;;;;;;;;;;5076406;28;20444;-81
2022/04/18 02:44:19;;;;;;;1.00;0.80;;;;;;;;;;5067011;28;20507;-81
2022/04/18 02:46:45;;;;;;;1.17;1.07;;;;;;;;;;5060397;28;20641;-81
2022/04/18 02:49:11;;;;;;;1.07;0.90;;;;;;;;;;5060868;28;20435;-81
2022/04/18 02:51:37;;;;;;;1.10;1.00;;;;;;;;;;5060511;28;20479;-81
2022/04/18 02:54:03;;;;;;;0.90;0.90;;;;;;;;;;5060663;28;20177;-81
2022/04/18 02:56:30;;;;;;;1.40;1.30;;;;;;;;;;5063037;28;20437;-80
2022/04/18 02:58:56;;;;;;;1.10;1.00;;;;;;;;;;5062885;28;20467;-81
2022/04/18 03:01:22;;;;;;;1.70;1.20;;;;;;;;;;5058519;28;20327;-81
2022/04/18 03:03:49;;;;;;;1.10;1.00;;;;;;;;;;5060147;28;20496;-81
2022/04/18 03:06:15;;;;;;;1.45;1.35;;;;;;;;;;5060788;28;20260;-81
2022/04/18 03:08:40;;;;;;;1.98;1.10;;;;;;;;;;5060583;28;20413;-81
2022/04/18 03:11:07;;;;;;;1.05;0.80;;;;;;;;;;5079168;28;20188;-81
2022/04/18 03:13:34;;;;;;;1.20;1.10;;;;;;;;;;5060841;28;20260;-81
2022/04/18 03:16:00;;;;;;;1.27;1.00;;;;;;;;;;5058399;28;20228;-81
2022/04/18 03:18:26;;;;;;;1.40;1.00;;;;;;;;;;5060004;28;20193;-81
2022/04/18 03:20:52;;;;;;;1.20;1.02;;;;;;;;;;5060461;28;20189;-81
2022/04/18 03:23:18;;;;;;;1.20;1.10;;;;;;;;;;5066512;28;20178;-81
2022/04/18 03:25:44;;;;;;;1.00;0.90;;;;;;;;;;5061807;28;20646;-81
2022/04/18 03:28:10;;;;;;;1.20;1.10;;;;;;;;;;5059972;28;20664;-81
2022/04/18 03:30:36;;;;;;;1.40;1.30;;;;;;;;;;5059043;28;20187;-81
2022/04/18 03:33:02;;;;;;;1.33;1.20;;;;;;;;;;5060173;28;20559;-81
2022/04/18 03:35:30;;;;;;;2.15;1.98;;;;;;;;;;5060923;28;20216;-81
2022/04/18 03:40:41;;;;;;;1.13;1.02;;;;;;;;;;5061019;28;20191;-81
2022/04/18 03:43:08;;;;;;;1.80;1.20;;;;;;;;;;5059399;28;20180;-81
2022/04/18 03:45:34;;;;;;;1.48;1.10;;;;;;;;;;5059480;28;20245;-81
2022/04/18 03:48:00;;;;;;;1.10;1.00;;;;;;;;;;5058421;28;20231;-81
2022/04/18 03:50:26;;;;;;;2.22;1.10;;;;;;;;;;5077738;28;20192;-81
2022/04/18 03:52:52;;;;;;;2.95;1.20;;;;;;;;;;5062609;28;20169;-81
2022/04/18 03:55:18;;;;;;;2.55;0.88;;;;;;;;;;5060324;28;20188;-81
2022/04/18 03:57:44;;;;;;;1.50;1.00;;;;;;;;;;5059123;28;20584;-81
2022/04/18 04:00:11;;;;;;;1.23;1.13;;;;;;;;;;5059810;28;20228;-81
2022/04/18 04:02:37;;;;;;;1.08;0.80;;;;;;;;;;5059740;28;20209;-81
2022/04/18 04:05:03;;;;;;;2.65;1.17;;;;;;;;;;5063406;28;20196;-81
2022/04/18 04:07:29;;;;;;;1.45;0.98;;;;;;;;;;5059445;28;20321;-81
2022/04/18 04:09:55;;;;;;;1.00;0.90;;;;;;;;;;5061733;28;20731;-81
2022/04/18 04:12:25;;;;;;;1.10;1.00;;;;;;;;;;5059534;28;20197;-81
2022/04/18 04:14:51;;;;;;;5.15;1.42;;;;;;;;;;5059609;28;20253;-81
2022/04/18 04:17:17;;;;;;;1.40;1.20;;;;;;;;;;5077254;28;20242;-81
2022/04/18 04:19:44;;;;;;;1.98;1.20;;;;;;;;;;5060009;28;20197;-81
2022/04/18 04:22:10;;;;;;;1.75;1.00;;;;;;;;;;5058431;28;20664;-81
2022/04/18 04:24:36;;;;;;;1.02;0.93;;;;;;;;;;5059572;28;20185;-81
2022/04/18 04:27:02;;;;;;;3.47;1.33;;;;;;;;;;5059248;28;20178;-81
2022/04/18 04:29:28;;;;;;;0.93;0.85;;;;;;;;;;5076008;28;20201;-81
2022/04/18 04:31:54;;;;;;;3.05;1.20;;;;;;;;;;5062104;28;20181;-81
2022/04/18 04:34:20;;;;;;;1.50;1.10;;;;;;;;;;5057779;28;20192;-81
2022/04/18 04:36:46;;;;;;;1.25;1.15;;;;;;;;;;5057989;28;20999;-81
2022/04/18 04:39:12;;;;;;;1.53;1.23;;;;;;;;;;5059533;28;20262;-82
2022/04/18 04:41:38;;;;;;;1.10;1.00;;;;;;;;;;5060852;28;20439;-81
2022/04/18 04:44:04;;;;;;;1.98;1.73;;;;;;;;;;5067209;28;20427;-81
2022/04/18 04:46:30;;;;;;;1.20;1.10;;;;;;;;;;5063270;28;20181;-81
2022/04/18 04:48:56;;;;;;;1.77;0.82;;;;;;;;;;5063916;28;20248;-81
2022/04/18 04:51:22;;;;;;;1.25;1.10;;;;;;;;;;5062743;28;20213;-81
2022/04/18 04:53:48;;;;;;;2.07;1.30;;;;;;;;;;5061591;28;20190;-81
2022/04/18 04:56:15;;;;;;;1.30;1.20;;;;;;;;;;5065484;28;20426;-81
2022/04/18 04:58:41;;;;;;;4.45;1.30;;;;;;;;;;5063825;28;20197;-81
2022/04/18 05:01:07;;;;;;;2.17;1.30;;;;;;;;;;5062588;28;20556;-81
2022/04/18 05:03:33;;;;;;;1.95;1.30;;;;;;;;;;5062067;28;20185;-81
2022/04/18 05:05:59;;;;;;;2.08;1.25;;;;;;;;;;5061207;28;20185;-81
2022/04/18 05:08:25;;;;;;;1.42;1.33;;;;;;;;;;5062514;28;20197;-81
2022/04/18 05:10:54;;;;;;;1.75;1.38;;;;;;;;;;5064549;28;20219;-81
2022/04/18 05:13:20;;;;;;;1.30;1.20;;;;;;;;;;5062789;28;20190;-81
2022/04/18 05:15:46;;;;;;;1.85;1.33;;;;;;;;;;5062501;28;20228;-81
2022/04/18 05:18:12;;;;;;;1.47;1.23;;;;;;;;;;5060936;28;20196;-81
2022/04/18 05:20:39;;;;;;;2.20;1.30;;;;;;;;;;5062590;28;20470;-81
2022/04/18 05:23:05;;;;;;;1.80;1.10;;;;;;;;;;5065801;28;20173;-81
2022/04/18 05:25:31;;;;;;;1.85;1.20;;;;;;;;;;5058560;28;20181;-80
2022/04/18 05:27:58;;;;;;;1.90;1.20;;;;;;;;;;5062176;28;20181;-81
2022/04/18 05:30:24;;;;;;;2.05;1.20;;;;;;;;;;5064192;28;20181;-81
2022/04/18 05:32:50;;;;;;;2.15;1.17;;;;;;;;;;5060918;28;20190;-81
2022/04/18 05:35:16;;;;;;;1.17;1.03;;;;;;;;;;5064217;28;20184;-81
2022/04/18 05:37:42;;;;;;;1.23;1.13;;;;;;;;;;5062102;28;20424;-81
2022/04/18 05:40:08;;;;;;;3.03;1.20;;;;;;;;;;5061767;28;20205;-81
2022/04/18 05:42:35;;;;;;;1.70;1.13;;;;;;;;;;5061146;28;20253;-81
2022/04/18 05:45:01;;;;;;;1.30;1.20;;;;;;;;;;5062455;28;20678;-81
2022/04/18 05:47:27;;;;;;;2.20;1.30;;;;;;;;;;5062896;28;20189;-81
2022/04/18 05:49:53;;;;;;;2.50;1.20;;;;;;;;;;5064781;28;20203;-81
2022/04/18 05:52:19;;;;;;;2.70;1.30;;;;;;;;;;5061640;28;20458;-81
2022/04/18 05:54:45;;;;;;;1.23;1.13;;;;;;;;;;5060440;28;20548;-81
2022/04/18 05:57:11;;;;;;;3.72;3.38;;;;;;;;;;5058745;28;20193;-81
2022/04/18 05:59:37;;;;;;;1.15;1.05;;;;;;;;;;5060683;28;20255;-81
2022/04/18 06:02:03;;;;;;;1.63;1.20;;;;;;;;;;5064986;28;20184;-81
2022/04/18 06:04:29;;;;;;;1.77;1.63;;;;;;;;;;5061170;28;20235;-81
2022/04/18 06:06:55;;;;;;;1.42;1.17;;;;;;;;;;5061289;28;20177;-81
2022/04/18 06:09:21;;;;;;;2.45;1.88;;;;;;;;;;5061021;28;20243;-80
2022/04/18 06:11:47;;;;;;;1.17;1.08;;;;;;;;;;5059851;28;20193;-81
2022/04/18 06:14:13;;;;;;;2.08;1.52;;;;;;;;;;5074441;28;20568;-81
2022/04/18 06:16:39;;;;;;;2.13;1.38;;;;;;;;;;5062703;28;20187;-81
2022/04/18 06:19:05;;;;;;;1.73;1.30;;;;;;;;;;5059656;28;20201;-81
2022/04/18 06:21:31;;;;;;;5.40;1.93;;;;;;;;;;5060186;28;20562;-81
2022/04/18 06:23:57;;;;;;;1.88;1.40;;;;;;;;;;5077140;28;20423;-81
2022/04/18 06:26:23;;;;;;;2.40;1.77;;;;;;;;;;5062831;28;20251;-81
2022/04/18 06:28:49;;;;;;;1.80;1.70;;;;;;;;;;5063796;28;20420;-81
2022/04/18 06:31:15;;;;;;;1.57;1.47;;;;;;;;;;5060854;28;20442;-80
2022/04/18 06:33:41;;;;;;;2.00;1.80;;;;;;;;;;5059473;28;20458;-80
2022/04/18 06:36:07;;;;;;;3.80;1.70;;;;;;;;;;5063908;28;20195;-81
2022/04/18 06:38:33;;;;;;;2.03;1.80;;;;;;;;;;5061460;28;20904;-80
2022/04/18 06:40:59;;;;;;;2.20;1.60;;;;;;;;;;5063334;28;20447;-81
2022/04/18 06:43:25;;;;;;;3.15;2.85;;;;;;;;;;5060961;28;20416;-80
2022/04/18 06:45:51;;;;;;;3.10;2.80;;;;;;;;;;5060691;28;20494;-80
2022/04/18 06:48:17;;;;;;;4.07;3.20;;;;;;;;;;5061158;28;20534;-81
2022/04/18 06:50:45;;;;;;;3.85;2.45;;;;;;;;;;5060790;28;20190;-80
2022/04/18 06:53:11;;;;;;;4.38;2.50;;;;;;;;;;5069038;28;20177;-83
2022/04/18 06:58:23;;;;;;;4.57;2.83;;;;;;;;;;5069852;28;20724;-86
2022/04/18 07:00:49;;;;;;;7.50;3.25;;;;;;;;;;5063565;28;20209;-83
2022/04/18 07:03:15;;;;;;;4.20;3.15;;;;;;;;;;5062612;28;20192;-84
2022/04/18 07:05:41;;;;;;;6.40;3.25;;;;;;;;;;5069254;28;20272;-83
2022/04/18 07:08:08;;;;;;;6.05;2.90;;;;;;;;;;5064909;28;20192;-83
2022/04/18 07:10:34;;;;;;;3.95;3.05;;;;;;;;;;5063115;28;20177;-84
2022/04/18 07:13:00;;;;;;;3.90;2.83;;;;;;;;;;5043251;28;20219;-83
2022/04/18 07:15:26;;;;;;;4.00;2.90;;;;;;;;;;5060551;28;20466;-84
2022/04/18 07:17:52;;;;;;;3.13;2.63;;;;;;;;;;5061357;28;20454;-83
2022/04/18 07:20:18;;;;;;;4.30;3.00;;;;;;;;;;5062280;28;20215;-83
2022/04/18 07:22:44;;;;;;;3.65;2.50;;;;;;;;;;5049237;28;20188;-83
2022/04/18 07:25:10;;;;;;;3.95;2.80;;;;;;;;;;5061766;28;20203;-83
2022/04/18 07:27:37;;;;;;;3.55;2.55;;;;;;;;;;5057809;28;20632;-83
2022/04/18 07:30:03;;;;;;;5.05;3.25;;;;;;;;;;5060511;28;20208;-83
2022/04/18 07:32:29;;;;;;;3.20;2.88;;;;;;;;;;5059127;28;20718;-83
2022/04/18 07:34:55;;;;;;;3.45;3.15;;;;;;;;;;5066775;28;20187;-84
2022/04/18 07:37:21;;;;;;;4.57;3.50;;;;;;;;;;5060400;28;20200;-83
2022/04/18 07:39:47;;;;;;;3.10;2.80;;;;;;;;;;5076337;28;20494;-84
2022/04/18 07:42:13;;;;;;;3.60;2.60;;;;;;;;;;5059811;28;20448;-85
2022/04/18 07:44:39;;;;;;;4.00;2.70;;;;;;;;;;5061037;28;20875;-84
2022/04/18 07:47:05;;;;;;;3.60;2.63;;;;;;;;;;5079815;28;20177;-84
2022/04/18 07:49:31;;;;;;;3.65;3.33;;;;;;;;;;5060034;28;21046;-84
2022/04/18 07:51:57;;;;;;;2.92;2.50;;;;;;;;;;5061883;28;20493;-84
2022/04/18 07:54:23;;;;;;;3.30;2.67;;;;;;;;;;5058811;28;20261;-83
2022/04/18 07:56:50;;;;;;;6.50;2.80;;;;;;;;;;5058351;28;20467;-85
2022/04/18 07:59:16;;;;;;;3.40;2.95;;;;;;;;;;5062251;28;20227;-83
2022/04/18 08:01:43;;;;;;;3.15;2.70;;;;;;;;;;5060519;28;20181;-87
2022/04/18 08:04:09;;;;;;;3.28;2.70;;;;;;;;;;5042041;28;20246;-84
2022/04/18 08:06:35;;;;;;;3.30;2.67;;;;;;;;;;5061218;28;20181;-84
2022/04/18 08:09:01;;;;;;;3.88;2.60;;;;;;;;;;5074949;28;20187;-84
2022/04/18 08:11:28;;;;;;;3.05;2.75;;;;;;;;;;5075063;28;20181;-83
2022/04/18 08:13:54;;;;;;;3.55;3.35;;;;;;;;;;5066127;28;20578;-83
2022/04/18 08:16:20;;;;;;;3.10;2.60;;;;;;;;;;5059785;28;20246;-82
2022/04/18 08:18:46;;;;;;;3.10;2.80;;;;;;;;;;5047489;28;20239;-83
2022/04/18 08:21:14;;;;;;;2.77;2.47;;;;;;;;;;5072202;28;20185;-84
2022/04/18 08:23:40;;;;;;;4.18;2.42;;;;;;;;;;5098905;28;20439;-84
2022/04/18 08:26:07;;;;;;;3.63;2.22;;;;;;;;;;5070076;28;20195;-83
2022/04/18 08:28:34;;;;;;;6.10;2.97;;;;;;;;;;5068132;28;20181;-84
2022/04/18 08:31:00;;;;;;;4.20;2.85;;;;;;;;;;5066049;28;20180;-85
2022/04/18 08:35:11;;;;;;;16.40;6.85;;;;;;;;;;5059341;28;20537;-82
2022/04/18 08:37:37;;;;;;;10.98;4.47;;;;;;;;;;5051026;28;20173;-79
2022/04/18 08:40:04;;;;;;;5.20;2.92;;;;;;;;;;5050781;28;20281;-84
2022/04/18 08:42:34;;;;;;;2.83;2.53;;;;;;;;;;5048608;28;20215;-88
2022/04/18 08:45:01;;;;;;;2.47;2.28;;;;;;;;;;5038951;28;20265;-85
2022/04/18 08:52:57;;;;;;;263.13;76.43;;;;;;;;;;5045433;28;20205;-83
2022/04/18 08:55:23;;;;;;;99.55;31.25;;;;;;;;;;5047349;28;20186;-85
2022/04/18 08:57:49;;;;;;;44.25;12.93;;;;;;;;;;5045762;28;20188;-85
2022/04/18 09:00:15;;;;;;;165.23;57.03;;;;;;;;;;5054234;28;20185;-83
2022/04/18 09:02:42;;;;;;;229.73;74.72;;;;;;;;;;5045224;28;20186;-83
2022/04/18 09:05:11;;;;;;;284.65;79.93;;;;;;;;;;5058667;28;20204;-84
2022/04/18 09:07:38;;;;;;;201.20;78.40;;;;;;;;;;5034632;28;20170;-87
2022/04/18 09:10:04;;;;;;;64.93;28.00;;;;;;;;;;5034651;28;20193;-84
2022/04/18 09:12:31;;;;;;;83.70;34.72;;;;;;;;;;5039400;28;20736;-83
2022/04/18 09:14:57;;;;;;;428.20;129.15;;;;;;;;;;5044296;28;20216;-83
2022/04/18 09:17:33;;;;;;;67.60;31.80;;;;;;;;;;5031753;28;20651;-83
2022/04/18 09:20:06;;;;;;;6.78;5.10;;;;;;;;;;5035970;28;20445;-81
2022/04/18 09:22:39;;;;;;;86.22;34.65;;;;;;;;;;5036283;28;20190;-83
2022/04/18 09:25:12;;;;;;;140.27;51.75;;;;;;;;;;5048844;28;20248;-83
2022/04/18 09:27:38;;;;;;;12.60;5.93;;;;;;;;;;5053254;28;20177;-81
2022/04/18 09:30:11;;;;;;;7.53;2.90;;;;;;;;;;5052847;28;20314;-77
2022/04/18 09:32:40;;;;;;;148.57;53.05;;;;;;;;;;5045291;28;20446;-75
2022/04/18 09:35:07;;;;;;;309.65;93.97;;;;;;;;;;5055321;28;20215;-78
2022/04/18 09:37:33;;;;;;;294.02;90.47;;;;;;;;;;5048858;28;20835;-80
2022/04/18 09:39:59;;;;;;;75.90;29.35;;;;;;;;;;5052446;28;20240;-77
2022/04/18 09:42:26;;;;;;;27.02;13.00;;;;;;;;;;5053757;28;20185;-78
2022/04/18 09:44:52;;;;;;;18.65;7.13;;;;;;;;;;5041504;28;20194;-79
2022/04/18 09:47:19;;;;;;;130.95;50.78;;;;;;;;;;5039570;28;20188;-79
2022/04/18 09:49:45;;;;;;;45.10;22.23;;;;;;;;;;5042422;28;20218;-79
2022/04/18 09:52:12;;;;;;;5.07;4.15;;;;;;;;;;5029798;28;20251;-80
2022/04/18 09:54:43;;;;;;;3.42;2.97;;;;;;;;;;5042195;28;20221;-79
2022/04/18 09:57:10;;;;;;;3.92;3.08;;;;;;;;;;5029195;28;20263;-81
2022/04/18 09:59:37;;;;;;;4.40;2.78;;;;;;;;;;5035618;28;20196;-81
2022/04/18 10:02:04;;;;;;;85.22;26.80;;;;;;;;;;5027831;28;20220;-78
2022/04/18 10:04:30;;;;;;;3.90;3.35;;;;;;;;;;5034450;28;20400;-78
2022/04/18 10:06:57;;;;;;;106.18;41.38;;;;;;;;;;5023771;28;20186;-77
2022/04/18 10:09:26;;;;;;;82.45;33.22;;;;;;;;;;5038125;28;20190;-84
2022/04/18 10:11:52;;;;;;;5.72;3.17;;;;;;;;;;5037361;28;20217;-82
2022/04/18 10:14:19;;;;;;;61.00;25.88;;;;;;;;;;5019966;28;20206;-82
2022/04/18 10:16:45;;;;;;;8.93;3.88;;;;;;;;;;5019504;28;20178;-84
2022/04/18 10:19:36;;;;;;;3.00;2.65;;;;;;;;;;5034665;28;20264;-83
2022/04/18 10:22:22;;;;;;;3.25;2.75;;;;;;;;;;5027734;28;20189;-83
2022/04/18 10:25:06;;;;;;;3.00;2.70;;;;;;;;;;4999380;28;20196;-82
2022/04/18 10:27:34;;;;;;;4.38;3.55;;;;;;;;;;4993054;28;20280;-82
2022/04/18 10:30:01;;;;;;;3.15;2.70;;;;;;;;;;4990408;28;20196;-80
2022/04/18 10:32:28;;;;;;;3.67;2.72;;;;;;;;;;4985742;28;20200;-82
2022/04/18 10:34:59;;;;;;;3.50;2.40;;;;;;;;;;4976810;28;20220;-82
2022/04/18 10:37:26;;;;;;;3.75;2.13;;;;;;;;;;4998853;28;20189;-81
2022/04/18 10:39:59;;;;;;;3.08;2.53;;;;;;;;;;4999913;28;20199;-81
2022/04/18 10:42:32;;;;;;;2.15;1.90;;;;;;;;;;4985654;28;20198;-82
2022/04/18 10:45:02;;;;;;;3.85;2.90;;;;;;;;;;5002621;28;20481;-83
2022/04/18 10:47:48;;;;;;;4.25;2.67;;;;;;;;;;5003766;28;20229;-81
2022/04/18 10:50:18;;;;;;;4.13;3.05;;;;;;;;;;4999959;28;20183;-81
2022/04/18 10:53:04;;;;;;;4.20;3.50;;;;;;;;;;4974424;28;20183;-81
2022/04/18 10:55:30;;;;;;;3.20;2.25;;;;;;;;;;4992955;28;20200;-83
2022/04/18 10:58:09;;;;;;;2.83;2.60;;;;;;;;;;4991562;28;20250;-82
2022/04/18 11:00:55;;;;;;;2.88;2.53;;;;;;;;;;4994452;28;20446;-85
2022/04/18 11:03:41;;;;;;;3.00;2.60;;;;;;;;;;5031734;28;20316;-84
2022/04/18 11:06:11;;;;;;;3.92;3.15;;;;;;;;;;5026701;28;20191;-82
2022/04/18 11:08:38;;;;;;;2.72;2.10;;;;;;;;;;5025192;28;20651;-81
2022/04/18 11:11:07;;;;;;;3.38;2.90;;;;;;;;;;5035598;28;20214;-83
2022/04/18 11:13:33;;;;;;;2.65;2.20;;;;;;;;;;5024274;28;20206;-81
2022/04/18 11:16:18;;;;;;;5.28;2.10;;;;;;;;;;5029419;28;20218;-83
2022/04/18 11:19:04;;;;;;;2.90;2.70;;;;;;;;;;5020684;28;20178;-84
2022/04/18 11:21:57;;;;;;;2.33;2.13;;;;;;;;;;5034517;28;20478;-83
2022/04/18 11:24:33;;;;;;;3.05;2.40;;;;;;;;;;4948701;28;20206;-84
2022/04/18 11:26:59;;;;;;;5.35;2.65;;;;;;;;;;4943860;29;20198;-88
2022/04/18 11:29:26;;;;;;;2.63;2.20;;;;;;;;;;4943411;29;20217;-88
2022/04/18 11:31:52;;;;;;;2.58;2.05;;;;;;;;;;4934309;29;20184;-84
2022/04/18 11:34:18;;;;;;;31.92;13.77;;;;;;;;;;4944416;29;20249;-86
2022/04/18 11:36:45;;;;;;;4.75;2.28;;;;;;;;;;4943745;29;20246;-86
2022/04/18 11:39:11;;;;;;;2.78;2.15;;;;;;;;;;4946137;29;20194;-85
2022/04/18 11:41:37;;;;;;;2.40;2.00;;;;;;;;;;4943372;29;20218;-86
2022/04/18 11:44:03;;;;;;;2.67;2.00;;;;;;;;;;4944710;29;20199;-86
2022/04/18 11:46:29;;;;;;;6.10;3.03;;;;;;;;;;4944422;29;20206;-84
2022/04/18 11:48:55;;;;;;;2.75;1.85;;;;;;;;;;4941260;29;20227;-85
2022/04/18 11:51:38;;;;;;;3.07;2.13;;;;;;;;;;4943416;29;20192;-89
2022/04/18 11:54:04;;;;;;;2.50;2.30;;;;;;;;;;4941474;29;20476;-92
2022/04/18 11:56:30;;;;;;;3.63;2.67;;;;;;;;;;4943522;29;20220;-91
2022/04/18 11:58:56;;;;;;;2.63;2.40;;;;;;;;;;4946608;29;20470;-86
2022/04/18 12:06:51;;;;;;;2.90;2.30;;;;;;;;;;5032052;28;20211;-84
2022/04/18 12:09:21;;;;;;;1.83;1.60;;;;;;;;;;5039098;28;20184;-84
2022/04/18 12:11:47;;;;;;;2.08;1.80;;;;;;;;;;5032148;28;20439;-85
2022/04/18 12:14:13;;;;;;;2.08;1.80;;;;;;;;;;5008938;28;20263;-86
2022/04/18 12:16:39;;;;;;;2.08;1.88;;;;;;;;;;5023993;28;20216;-85
2022/04/18 12:19:06;;;;;;;2.55;2.35;;;;;;;;;;5032509;28;20194;-83
2022/04/18 12:21:33;;;;;;;2.87;2.30;;;;;;;;;;5031231;28;20247;-85
2022/04/18 12:24:00;;;;;;;2.10;1.80;;;;;;;;;;5027138;28;20945;-82
2022/04/18 12:26:27;;;;;;;2.20;2.10;;;;;;;;;;5040236;28;20466;-85
2022/04/18 12:29:02;;;;;;;2.20;1.63;;;;;;;;;;5022112;28;20429;-85
2022/04/18 12:31:29;;;;;;;2.70;2.37;;;;;;;;;;5038029;28;20443;-85
2022/04/18 12:33:55;;;;;;;2.60;2.10;;;;;;;;;;5015457;28;20903;-83
2022/04/18 12:36:25;;;;;;;3.00;2.13;;;;;;;;;;5028971;28;20471;-87
2022/04/18 12:38:52;;;;;;;2.90;2.00;;;;;;;;;;5026402;28;20437;-84
2022/04/18 12:41:38;;;;;;;4.27;2.27;;;;;;;;;;5025839;28;20460;-84
2022/04/18 12:44:11;;;;;;;2.20;2.00;;;;;;;;;;5039285;28;21013;-83
2022/04/18 12:46:37;;;;;;;3.47;2.63;;;;;;;;;;5028712;28;20443;-83
2022/04/18 12:49:05;;;;;;;2.23;2.03;;;;;;;;;;5031074;28;20441;-85
2022/04/18 12:51:32;;;;;;;2.10;2.00;;;;;;;;;;5032623;28;20439;-85
2022/04/18 12:53:58;;;;;;;3.87;1.87;;;;;;;;;;5028066;28;20486;-85
2022/04/18 12:56:25;;;;;;;3.80;2.33;;;;;;;;;;5007990;28;20425;-85
2022/04/18 12:58:54;;;;;;;2.60;2.40;;;;;;;;;;5021171;28;20487;-85
2022/04/18 13:01:22;;;;;;;2.17;1.97;;;;;;;;;;5036375;28;20527;-85
2022/04/18 13:03:48;;;;;;;2.80;2.50;;;;;;;;;;5031710;28;20415;-87
2022/04/18 13:06:21;;;;;;;3.17;2.97;;;;;;;;;;5033083;28;20443;-87
2022/04/18 13:08:47;;;;;;;2.00;1.90;;;;;;;;;;5024339;28;20933;-87
2022/04/18 13:11:14;;;;;;;2.60;2.40;;;;;;;;;;5021998;28;20524;-83
2022/04/18 13:13:42;;;;;;;2.37;2.17;;;;;;;;;;5038155;28;20443;-86
2022/04/18 13:16:24;;;;;;;2.40;2.20;;;;;;;;;;5022388;28;20418;-85
2022/04/18 13:19:00;;;;;;;3.23;3.03;;;;;;;;;;5036565;28;20493;-86
2022/04/18 13:21:28;;;;;;;2.80;2.20;;;;;;;;;;5038399;28;20443;-84
2022/04/18 13:23:55;;;;;;;2.00;1.80;;;;;;;;;;5028981;28;20456;-89
2022/04/18 13:26:20;;;;;;;1.80;1.70;;;;;;;;;;5034311;28;20449;-86
2022/04/18 13:28:47;;;;;;;2.10;1.90;;;;;;;;;;5036442;28;20790;-86
2022/04/18 13:31:15;;;;;;;2.87;1.70;;;;;;;;;;5019634;28;20440;-84
2022/04/18 13:33:44;;;;;;;1.80;1.70;;;;;;;;;;5027090;28;20535;-85
2022/04/18 13:36:30;;;;;;;1.60;1.50;;;;;;;;;;5026817;28;20419;-83
2022/04/18 13:38:56;;;;;;;2.20;1.40;;;;;;;;;;5031175;28;20772;-81
2022/04/18 13:41:22;;;;;;;1.57;1.43;;;;;;;;;;5020793;28;20388;-84
2022/04/18 13:43:48;;;;;;;1.67;1.50;;;;;;;;;;5020931;28;20430;-84
2022/04/18 13:46:14;;;;;;;4.20;1.50;;;;;;;;;;5017099;28;20423;-86
2022/04/18 13:48:43;;;;;;;1.80;1.70;;;;;;;;;;5014334;28;20425;-87
2022/04/18 13:51:09;;;;;;;2.17;1.97;;;;;;;;;;5030024;28;20469;-84
2022/04/18 13:53:35;;;;;;;1.40;1.30;;;;;;;;;;5017874;28;20456;-87
2022/04/18 13:56:01;;;;;;;1.83;1.60;;;;;;;;;;5017629;28;20764;-87
2022/04/18 13:58:27;;;;;;;1.50;1.40;;;;;;;;;;5010658;28;20432;-85
2022/04/18 14:00:53;;;;;;;1.60;1.50;;;;;;;;;;5019837;28;20446;-89
2022/04/18 14:03:19;;;;;;;3.37;1.43;;;;;;;;;;5028819;28;20454;-84
2022/04/18 14:05:45;;;;;;;1.60;1.50;;;;;;;;;;5018477;28;20434;-88
2022/04/18 14:08:12;;;;;;;1.60;1.50;;;;;;;;;;5018397;28;20401;-81
2022/04/18 14:10:38;;;;;;;1.50;1.40;;;;;;;;;;5012879;28;20453;-88
2022/04/18 14:13:04;;;;;;;1.47;1.30;;;;;;;;;;5020728;28;20457;-85
2022/04/18 14:20:59;;;;;;;2.37;1.83;;;;;;;;;;5011591;28;20444;-88
2022/04/18 14:23:25;;;;;;;2.00;1.70;;;;;;;;;;5027630;28;20462;-84
2022/04/18 14:25:51;;;;;;;1.50;1.40;;;;;;;;;;5011820;28;20573;-84
2022/04/18 14:28:17;;;;;;;3.20;2.00;;;;;;;;;;5011656;28;20429;-86
2022/04/18 14:30:44;;;;;;;1.83;1.73;;;;;;;;;;5011462;28;20442;-85
2022/04/18 14:33:10;;;;;;;1.50;1.40;;;;;;;;;;5029368;28;20511;-88
2022/04/18 14:35:36;;;;;;;2.17;1.97;;;;;;;;;;5035024;28;20433;-86
2022/04/18 14:38:02;;;;;;;2.33;1.83;;;;;;;;;;5023186;28;20881;-83
2022/04/18 14:40:29;;;;;;;1.83;1.73;;;;;;;;;;5013421;28;20509;-83
2022/04/18 14:42:55;;;;;;;2.10;1.43;;;;;;;;;;5016179;28;20806;-83
2022/04/18 14:45:21;;;;;;;3.37;1.30;;;;;;;;;;5024027;28;20434;-83
2022/04/18 14:47:47;;;;;;;2.10;1.60;;;;;;;;;;5016210;28;20495;-86
2022/04/18 14:50:13;;;;;;;2.00;1.77;;;;;;;;;;5020024;28;20417;-84
2022/04/18 14:52:39;;;;;;;3.10;1.70;;;;;;;;;;5022247;28;20440;-87
2022/04/18 14:55:05;;;;;;;3.60;1.67;;;;;;;;;;5034201;28;20465;-89
2022/04/18 14:57:31;;;;;;;1.60;1.50;;;;;;;;;;5019344;28;20442;-87
2022/04/18 14:59:58;;;;;;;2.20;1.57;;;;;;;;;;5009236;28;20494;-87
2022/04/18 15:02:24;;;;;;;2.60;2.03;;;;;;;;;;5008493;28;20524;-90
2022/04/18 15:04:51;;;;;;;1.65;1.55;;;;;;;;;;5021847;28;20430;-90
2022/04/18 15:07:17;;;;;;;1.50;1.40;;;;;;;;;;5014986;28;20205;-91
2022/04/18 15:09:43;;;;;;;3.33;1.90;;;;;;;;;;5022424;28;20193;-85
2022/04/18 15:12:09;;;;;;;1.58;1.48;;;;;;;;;;5020411;28;20454;-89
2022/04/18 15:14:36;;;;;;;1.83;1.73;;;;;;;;;;5022368;28;20293;-87